Leander, TX (78641)

10:04 AM CDT on July 29, 2016 (GMT -0500)
| | Change Station

Elev -9999 ft 0.00 °N, 0.00 °E | Updated

Partly Cloudy
Partly Cloudy
88 °F
Feels Like 94 °F
N
7
Wind Variable Wind from SSW
Gusts mph

Today
High -- | Low -- °F
--% Chance of Precip.
Yesterday
High -- | Low -- °F
Precip. -- in
Pressure 30.09 in
Visibility 10.0 miles
Clouds Scattered Clouds 1500 ft
Scattered Clouds 2000 ft
Heat Index 94 °F
Dew Point 71 °F
Humidity 57%
Rainfall --
Snow Depth Not available.
6:48 AM 8:27 PM
Waning Crescent, 21% visible
METAR KRYW 291455Z AUTO 22003KT 10SM SCT015 SCT020 27/22 A3009 RMK AO2 T02690224
Pressure 30.09 in
Visibility 10.0 miles
Clouds Scattered Clouds 1500 ft
Scattered Clouds 2000 ft
Heat Index 94 °F
Dew Point 71 °F
Humidity 57%
Rainfall --
Snow Depth Not available.
6:48 AM 8:27 PM
Waning Crescent, 21% visible
METAR KRYW 291455Z AUTO 22003KT 10SM SCT015 SCT020 27/22 A3009 RMK AO2 T02690224

10-Day Weather Forecast

Almanac

Astronomy

Jul. 29, 2016 Rise Set
Actual Time
Civil Twilight
Nautical Twilight
Astronomical Twilight
Moon
Length of Visible Light
Length of Day
Tomorrow will be .
, % of the Moon is Illuminated

Today's Extremes

State Highs State Lows

Community

WunderPhotos

Upload Photos

1,928,345 photos uploaded!

WunderBlog® & News

Nearby

Air Quality

  Air Quality AQ Index Pollutant
Not available.

Snow Depth

Station Depth Elevation

Earthquake Activity

City Distance Mag. Time & Date
Minimum magnitude displayed is 2.5.

Coastal Water Temperatures

Place Temperature

Stations

Nearby Weather Stations

Station Location Temp. Windchill Dew Point Humidity Wind Precip. Elev Updated Type
                   

Watches & Warnings

There are currently no watches in effect.